createdAt,value
2023-05-18T00:00:57.327Z,95530.00
2023-05-18T00:01:57.398Z,95528.00
2023-05-18T00:02:57.633Z,95529.00
2023-05-18T00:03:57.584Z,95530.00
2023-05-18T00:04:57.584Z,95530.00
2023-05-18T00:05:57.683Z,95528.00
2023-05-18T00:06:57.745Z,95529.00
2023-05-18T00:07:57.791Z,95527.00
2023-05-18T00:08:57.860Z,95527.00
2023-05-18T00:09:57.946Z,95525.00
2023-05-18T00:10:57.991Z,95524.00
2023-05-18T00:11:58.010Z,95528.00
2023-05-18T00:12:58.087Z,95524.00
2023-05-18T00:13:58.127Z,95525.00
2023-05-18T00:14:58.231Z,95523.00
2023-05-18T00:15:58.288Z,95524.00
2023-05-18T00:16:58.317Z,95525.00
2023-05-18T00:17:58.558Z,95525.00
2023-05-18T00:18:58.457Z,95523.00
2023-05-18T00:19:58.488Z,95524.00
2023-05-18T00:20:58.552Z,95520.00
2023-05-18T00:21:58.585Z,95521.00
2023-05-18T00:22:58.657Z,95519.00
2023-05-18T00:23:58.709Z,95519.00
2023-05-18T00:24:58.747Z,95520.00
2023-05-18T00:25:58.813Z,95522.00
2023-05-18T00:26:58.866Z,95525.00
2023-05-18T00:27:58.950Z,95525.00
2023-05-18T00:28:58.988Z,95525.00
2023-05-18T00:29:59.072Z,95525.00
2023-05-18T00:30:59.125Z,95523.00
2023-05-18T00:31:59.203Z,95523.00
2023-05-18T00:32:59.260Z,95522.00
2023-05-18T00:33:59.290Z,95523.00
2023-05-18T00:34:59.371Z,95521.00
2023-05-18T00:35:59.431Z,95522.00
2023-05-18T00:36:59.461Z,95521.00
2023-05-18T00:37:59.547Z,95521.00
2023-05-18T00:38:59.607Z,95519.00
2023-05-18T00:39:59.698Z,95516.00
2023-05-18T00:40:59.715Z,95517.00
2023-05-18T00:41:59.755Z,95515.00
2023-05-18T00:42:59.842Z,95517.00
2023-05-18T00:43:59.873Z,95513.00
2023-05-18T00:44:59.909Z,95516.00
2023-05-18T00:45:59.995Z,95514.00
2023-05-18T00:47:00.033Z,95513.00
2023-05-18T00:48:00.148Z,95514.00
2023-05-18T00:49:00.140Z,95511.00
2023-05-18T00:50:00.187Z,95511.00
2023-05-18T00:51:00.226Z,95511.00
2023-05-18T00:52:00.264Z,95511.00
2023-05-18T00:53:00.353Z,95511.00
2023-05-18T00:54:00.332Z,95508.00
2023-05-18T00:55:00.407Z,95510.00
2023-05-18T00:56:00.406Z,95509.00
2023-05-18T00:57:00.396Z,95508.00
2023-05-18T00:58:00.430Z,95508.00
2023-05-18T00:59:00.488Z,95510.00
2023-05-18T01:00:00.546Z,95510.00
2023-05-18T01:01:00.591Z,95505.00
2023-05-18T01:02:00.582Z,95508.00
2023-05-18T01:03:00.699Z,95507.00
2023-05-18T01:04:00.594Z,95506.00
2023-05-18T01:05:00.641Z,95502.00
2023-05-18T01:06:00.637Z,95503.00
2023-05-18T01:07:00.729Z,95503.00
2023-05-18T01:08:00.725Z,95503.00
2023-05-18T01:09:00.764Z,95503.00
2023-05-18T01:10:00.762Z,95501.00
2023-05-18T01:11:00.810Z,95501.00
2023-05-18T01:12:00.840Z,95500.00
2023-05-18T01:13:00.886Z,95498.00
2023-05-18T01:14:00.947Z,95497.00
2023-05-18T01:15:00.947Z,95498.00
2023-05-18T01:16:01.006Z,95499.00
2023-05-18T01:17:01.052Z,95498.00
2023-05-18T01:18:01.131Z,95498.00
2023-05-18T01:19:01.181Z,95498.00
2023-05-18T01:20:01.140Z,95499.00
2023-05-18T01:21:01.173Z,95497.00
2023-05-18T01:22:01.255Z,95496.00
2023-05-18T01:23:01.319Z,95498.00
2023-05-18T01:24:01.357Z,95498.00
2023-05-18T01:25:01.425Z,95496.00
2023-05-18T01:26:01.474Z,95497.00
2023-05-18T01:27:01.548Z,95496.00
2023-05-18T01:28:01.549Z,95496.00
2023-05-18T01:29:01.594Z,95495.00
2023-05-18T01:30:01.665Z,95494.00
2023-05-18T01:31:01.788Z,95494.00
2023-05-18T01:32:01.756Z,95493.00
2023-05-18T01:33:01.860Z,95491.00
2023-05-18T01:34:01.865Z,95491.00
2023-05-18T01:35:01.940Z,95489.00
2023-05-18T01:36:01.970Z,95488.00
2023-05-18T01:37:01.986Z,95487.00
2023-05-18T01:38:02.057Z,95485.00
2023-05-18T01:39:02.221Z,95485.00
2023-05-18T01:40:02.207Z,95485.00
2023-05-18T01:41:02.256Z,95484.00
2023-05-18T01:42:02.366Z,95482.00
2023-05-18T01:43:02.369Z,95480.00
2023-05-18T01:44:02.442Z,95482.00
2023-05-18T01:45:02.457Z,95482.00
2023-05-18T01:46:02.627Z,95480.00
2023-05-18T01:47:02.618Z,95480.00
2023-05-18T01:48:02.685Z,95480.00
2023-05-18T01:49:02.689Z,95479.00
2023-05-18T01:50:02.786Z,95480.00
2023-05-18T01:51:02.832Z,95479.00
2023-05-18T01:52:02.885Z,95479.00
2023-05-18T01:53:02.944Z,95479.00
2023-05-18T01:54:03.000Z,95479.00
2023-05-18T01:55:03.034Z,95478.00
2023-05-18T01:56:03.105Z,95477.00
2023-05-18T01:57:03.146Z,95477.00
2023-05-18T01:58:03.229Z,95477.00
2023-05-18T01:59:03.257Z,95475.00
2023-05-18T02:00:03.306Z,95474.00
2023-05-18T02:01:03.347Z,95478.00
2023-05-18T02:02:03.558Z,95476.00
2023-05-18T02:03:03.573Z,95476.00
2023-05-18T02:04:03.577Z,95475.00
2023-05-18T02:05:03.624Z,95475.00
2023-05-18T02:06:03.625Z,95475.00
2023-05-18T02:07:03.803Z,95476.00
2023-05-18T02:08:04.773Z,95473.00
2023-05-18T02:09:03.760Z,95475.00
2023-05-18T02:10:03.860Z,95474.00
2023-05-18T02:11:03.899Z,95474.00
2023-05-18T02:12:03.979Z,95473.00
2023-05-18T02:13:03.986Z,95474.00
2023-05-18T02:14:04.046Z,95473.00
2023-05-18T02:15:04.134Z,95472.00
2023-05-18T02:16:04.217Z,95472.00
2023-05-18T02:17:04.232Z,95474.00
2023-05-18T02:18:04.317Z,95474.00
2023-05-18T02:19:04.374Z,95473.00
2023-05-18T02:20:04.384Z,95473.00
2023-05-18T02:21:04.445Z,95473.00
2023-05-18T02:22:04.498Z,95470.00
2023-05-18T02:23:04.526Z,95472.00
2023-05-18T02:24:04.631Z,95471.00
2023-05-18T02:25:04.679Z,95471.00
2023-05-18T02:26:04.705Z,95472.00
2023-05-18T02:27:04.713Z,95471.00
2023-05-18T02:28:04.759Z,95469.00
2023-05-18T02:29:04.786Z,95468.00
2023-05-18T02:30:04.837Z,95468.00
2023-05-18T02:31:04.882Z,95469.00
2023-05-18T02:32:04.963Z,95467.00
2023-05-18T02:33:05.002Z,95468.00
2023-05-18T02:34:04.991Z,95467.00
2023-05-18T02:35:04.994Z,95466.00
2023-05-18T02:36:05.016Z,95467.00
2023-05-18T02:37:05.039Z,95465.00
2023-05-18T02:38:05.085Z,95465.00
2023-05-18T02:39:05.112Z,95465.00
2023-05-18T02:40:05.193Z,95465.00
2023-05-18T02:41:05.205Z,95465.00
2023-05-18T02:42:05.240Z,95463.00
2023-05-18T02:43:05.322Z,95465.00
2023-05-18T02:44:05.310Z,95464.00
2023-05-18T02:45:05.392Z,95463.00
2023-05-18T02:46:05.474Z,95460.00
2023-05-18T02:47:05.457Z,95459.00
2023-05-18T02:48:05.540Z,95460.00
2023-05-18T02:49:05.517Z,95461.00
2023-05-18T02:50:05.608Z,95459.00
2023-05-18T02:51:05.642Z,95457.00
2023-05-18T02:52:05.656Z,95458.00
2023-05-18T02:53:05.716Z,95455.00
2023-05-18T02:54:05.757Z,95456.00
2023-05-18T02:55:05.818Z,95455.00
2023-05-18T02:56:05.870Z,95454.00
2023-05-18T02:57:05.932Z,95458.00
2023-05-18T02:58:05.955Z,95456.00
2023-05-18T02:59:07.283Z,95453.00
2023-05-18T03:00:06.048Z,95451.00
2023-05-18T03:01:06.001Z,95451.00
2023-05-18T03:02:06.064Z,95453.00
2023-05-18T03:03:06.078Z,95452.00
2023-05-18T03:04:05.991Z,95450.00
2023-05-18T03:05:05.992Z,95450.00
2023-05-18T03:06:05.979Z,95450.00
2023-05-18T03:07:05.987Z,95454.00
2023-05-18T03:08:05.971Z,95454.00
2023-05-18T03:09:05.943Z,95453.00
2023-05-18T03:10:05.930Z,95454.00
2023-05-18T03:11:05.968Z,95451.00
2023-05-18T03:12:05.917Z,95451.00
2023-05-18T03:13:05.933Z,95450.00
2023-05-18T03:14:05.914Z,95450.00
2023-05-18T03:15:05.913Z,95452.00
2023-05-18T03:16:05.895Z,95451.00
2023-05-18T03:17:06.061Z,95449.00
2023-05-18T03:18:05.900Z,95451.00
2023-05-18T03:19:06.004Z,95451.00
2023-05-18T03:20:05.898Z,95449.00
2023-05-18T03:21:05.872Z,95450.00
2023-05-18T03:22:05.902Z,95451.00
2023-05-18T03:23:05.859Z,95448.00
2023-05-18T03:24:05.891Z,95449.00
2023-05-18T03:25:05.856Z,95451.00
2023-05-18T03:26:05.858Z,95450.00
2023-05-18T03:27:05.821Z,95451.00
2023-05-18T03:28:05.859Z,95452.00
2023-05-18T03:29:05.809Z,95451.00
2023-05-18T03:30:05.835Z,95452.00
2023-05-18T03:31:05.924Z,95454.00
2023-05-18T03:32:05.801Z,95452.00
2023-05-18T03:33:05.879Z,95452.00
2023-05-18T03:34:05.815Z,95453.00
2023-05-18T03:35:05.790Z,95454.00
2023-05-18T03:36:05.771Z,95454.00
2023-05-18T03:37:05.793Z,95455.00
2023-05-18T03:38:05.772Z,95454.00
2023-05-18T03:39:05.761Z,95457.00
2023-05-18T03:40:05.753Z,95460.00
2023-05-18T03:41:05.766Z,95458.00
2023-05-18T03:42:05.747Z,95461.00
2023-05-18T03:43:05.728Z,95458.00
2023-05-18T03:44:05.704Z,95457.00
2023-05-18T03:45:05.718Z,95459.00
2023-05-18T03:46:05.817Z,95460.00
2023-05-18T03:47:05.726Z,95459.00
2023-05-18T03:48:05.769Z,95459.00
2023-05-18T03:49:05.770Z,95457.00
2023-05-18T03:50:05.800Z,95456.00
2023-05-18T03:51:05.885Z,95457.00
2023-05-18T03:52:05.927Z,95456.00
2023-05-18T03:53:05.968Z,95457.00
2023-05-18T03:54:06.002Z,95458.00
2023-05-18T03:55:06.006Z,95459.00
2023-05-18T03:56:06.010Z,95456.00
2023-05-18T03:57:06.043Z,95455.00
2023-05-18T03:58:06.053Z,95458.00
2023-05-18T03:59:06.092Z,95457.00
2023-05-18T04:00:06.114Z,95455.00
2023-05-18T04:01:06.192Z,95457.00
2023-05-18T04:02:06.281Z,95456.00
2023-05-18T04:03:06.372Z,95457.00
2023-05-18T04:04:06.381Z,95458.00
2023-05-18T04:05:06.471Z,95457.00
2023-05-18T04:06:06.497Z,95458.00
2023-05-18T04:07:06.532Z,95460.00
2023-05-18T04:08:06.586Z,95459.00
2023-05-18T04:09:06.671Z,95459.00
2023-05-18T04:10:06.710Z,95461.00
2023-05-18T04:11:06.758Z,95458.00
2023-05-18T04:12:06.842Z,95460.00
2023-05-18T04:13:06.886Z,95461.00
2023-05-18T04:14:06.930Z,95461.00
2023-05-18T04:15:06.969Z,95462.00
2023-05-18T04:16:07.036Z,95461.00
2023-05-18T04:17:07.090Z,95462.00
2023-05-18T04:18:07.132Z,95460.00
2023-05-18T04:19:08.240Z,95459.00
2023-05-18T04:20:07.166Z,95461.00
2023-05-18T04:21:07.209Z,95459.00
2023-05-18T04:22:07.240Z,95460.00
2023-05-18T04:23:07.226Z,95459.00
2023-05-18T04:24:07.272Z,95459.00
2023-05-18T04:25:07.328Z,95461.00
2023-05-18T04:26:07.349Z,95460.00
2023-05-18T04:27:07.333Z,95461.00
2023-05-18T04:28:07.421Z,95460.00
2023-05-18T04:29:07.400Z,95459.00
2023-05-18T04:30:07.479Z,95458.00
2023-05-18T04:31:07.524Z,95459.00
2023-05-18T04:32:07.556Z,95457.00
2023-05-18T04:33:07.668Z,95459.00
2023-05-18T04:34:07.690Z,95460.00
2023-05-18T04:35:07.641Z,95461.00
2023-05-18T04:36:07.696Z,95460.00
2023-05-18T04:37:07.740Z,95461.00
2023-05-18T04:38:07.715Z,95461.00
2023-05-18T04:39:07.768Z,95461.00
2023-05-18T04:40:07.782Z,95461.00
2023-05-18T04:41:07.791Z,95461.00
2023-05-18T04:42:07.852Z,95465.00
2023-05-18T04:43:07.899Z,95462.00
2023-05-18T04:44:07.916Z,95463.00
2023-05-18T04:45:07.973Z,95464.00
2023-05-18T04:46:08.042Z,95463.00
2023-05-18T04:47:07.995Z,95462.00
2023-05-18T04:48:08.013Z,95464.00
2023-05-18T04:49:07.997Z,95462.00
2023-05-18T04:50:08.052Z,95465.00
2023-05-18T04:51:08.073Z,95464.00
2023-05-18T04:52:08.118Z,95463.00
2023-05-18T04:53:08.117Z,95463.00
2023-05-18T04:54:08.134Z,95464.00
2023-05-18T04:55:08.146Z,95463.00
2023-05-18T04:56:08.175Z,95462.00
2023-05-18T04:57:08.172Z,95462.00
2023-05-18T04:58:08.168Z,95462.00
2023-05-18T04:59:08.169Z,95462.00
2023-05-18T05:00:08.185Z,95462.00
2023-05-18T05:01:08.226Z,95458.00
2023-05-18T05:02:08.219Z,95461.00
2023-05-18T05:03:08.262Z,95459.00
2023-05-18T05:04:08.239Z,95459.00
2023-05-18T05:05:08.218Z,95463.00
2023-05-18T05:06:08.293Z,95460.00
2023-05-18T05:07:08.343Z,95460.00
2023-05-18T05:08:08.400Z,95460.00
2023-05-18T05:09:08.434Z,95459.00
2023-05-18T05:10:08.473Z,95459.00
2023-05-18T05:11:08.483Z,95458.00
2023-05-18T05:12:08.502Z,95459.00
2023-05-18T05:13:08.564Z,95457.00
2023-05-18T05:14:08.571Z,95459.00
2023-05-18T05:15:08.578Z,95460.00
2023-05-18T05:16:08.613Z,95458.00
2023-05-18T05:17:08.642Z,95459.00
2023-05-18T05:18:08.757Z,95458.00
2023-05-18T05:19:08.779Z,95457.00
2023-05-18T05:20:08.715Z,95459.00
2023-05-18T05:21:08.761Z,95461.00
2023-05-18T05:22:08.799Z,95458.00
2023-05-18T05:23:08.854Z,95457.00
2023-05-18T05:24:08.863Z,95458.00
2023-05-18T05:25:08.862Z,95459.00
2023-05-18T05:26:08.872Z,95457.00
2023-05-18T05:27:08.897Z,95458.00
2023-05-18T05:28:08.950Z,95458.00
2023-05-18T05:29:08.910Z,95455.00
2023-05-18T05:30:08.937Z,95459.00
2023-05-18T05:31:08.973Z,95453.00
2023-05-18T05:32:08.962Z,95452.00
2023-05-18T05:33:09.003Z,95454.00
2023-05-18T05:34:09.072Z,95453.00
2023-05-18T05:35:08.991Z,95452.00
2023-05-18T05:36:09.007Z,95457.00
2023-05-18T05:37:09.036Z,95455.00
2023-05-18T05:38:09.045Z,95457.00
2023-05-18T05:39:09.052Z,95455.00
2023-05-18T05:40:09.073Z,95453.00
2023-05-18T05:41:09.117Z,95454.00
2023-05-18T05:42:09.155Z,95456.00
2023-05-18T05:43:09.170Z,95454.00
2023-05-18T05:44:09.182Z,95457.00
2023-05-18T05:45:09.274Z,95451.00
2023-05-18T05:46:09.314Z,95452.00
2023-05-18T05:47:09.369Z,95449.00
2023-05-18T05:48:11.152Z,95450.00
2023-05-18T05:49:09.349Z,95452.00
2023-05-18T05:50:09.349Z,95450.00
2023-05-18T05:51:09.348Z,95450.00
2023-05-18T05:52:09.378Z,95448.00
2023-05-18T05:53:09.345Z,95449.00
2023-05-18T05:54:10.805Z,95451.00
2023-05-18T05:55:09.329Z,95448.00
2023-05-18T05:56:09.319Z,95448.00
2023-05-18T05:57:09.309Z,95446.00
2023-05-18T05:58:09.282Z,95448.00
2023-05-18T05:59:09.285Z,95444.00
2023-05-18T06:00:09.309Z,95445.00
2023-05-18T06:01:09.257Z,95446.00
2023-05-18T06:02:09.315Z,95443.00
2023-05-18T06:03:09.303Z,95444.00
2023-05-18T06:04:09.288Z,95445.00
2023-05-18T06:05:09.253Z,95446.00
2023-05-18T06:06:09.243Z,95444.00
2023-05-18T06:07:09.266Z,95445.00
2023-05-18T06:08:09.241Z,95446.00
2023-05-18T06:09:09.240Z,95448.00
2023-05-18T06:10:09.314Z,95448.00
2023-05-18T06:11:10.789Z,95450.00
2023-05-18T06:12:09.460Z,95451.00
2023-05-18T06:13:09.487Z,95451.00
2023-05-18T06:14:09.533Z,95450.00
2023-05-18T06:15:09.622Z,95452.00
2023-05-18T06:16:10.254Z,95453.00
2023-05-18T06:17:09.757Z,95452.00
2023-05-18T06:18:11.418Z,95453.00
2023-05-18T06:19:09.871Z,95456.00
2023-05-18T06:20:09.801Z,95457.00
2023-05-18T06:21:09.786Z,95459.00
2023-05-18T06:22:09.773Z,95461.00
2023-05-18T06:23:09.783Z,95461.00
2023-05-18T06:24:09.753Z,95462.00
2023-05-18T06:25:09.740Z,95460.00
2023-05-18T06:26:09.789Z,95462.00
2023-05-18T06:27:09.754Z,95462.00
2023-05-18T06:28:09.755Z,95460.00
2023-05-18T06:29:09.744Z,95459.00
2023-05-18T06:30:09.720Z,95456.00
2023-05-18T06:31:09.711Z,95456.00
2023-05-18T06:32:09.787Z,95455.00
2023-05-18T06:33:09.785Z,95453.00
2023-05-18T06:34:09.676Z,95454.00
2023-05-18T06:35:09.713Z,95454.00
2023-05-18T06:36:09.710Z,95452.00
2023-05-18T06:37:09.698Z,95452.00
2023-05-18T06:38:09.675Z,95452.00
2023-05-18T06:39:09.648Z,95451.00
2023-05-18T06:40:09.654Z,95453.00
2023-05-18T06:41:09.663Z,95451.00
2023-05-18T06:42:09.679Z,95453.00
2023-05-18T06:43:09.677Z,95452.00
2023-05-18T06:44:09.664Z,95451.00
2023-05-18T06:45:09.637Z,95450.00
2023-05-18T06:46:09.675Z,95452.00
2023-05-18T06:47:09.686Z,95453.00
2023-05-18T06:48:09.732Z,95452.00
2023-05-18T06:49:09.616Z,95452.00
2023-05-18T06:50:09.629Z,95453.00
2023-05-18T06:51:09.591Z,95454.00
2023-05-18T06:52:09.625Z,95454.00
2023-05-18T06:53:09.590Z,95453.00
2023-05-18T06:54:09.602Z,95454.00
2023-05-18T06:55:09.643Z,95455.00
2023-05-18T06:56:09.625Z,95457.00
2023-05-18T06:57:09.712Z,95456.00
2023-05-18T06:58:09.758Z,95455.00
2023-05-18T06:59:09.789Z,95457.00
2023-05-18T07:00:09.851Z,95455.00
2023-05-18T07:01:09.933Z,95456.00
2023-05-18T07:02:09.935Z,95456.00
2023-05-18T07:03:10.030Z,95457.00
2023-05-18T07:04:10.081Z,95457.00
2023-05-18T07:05:10.111Z,95458.00
2023-05-18T07:06:10.151Z,95458.00
2023-05-18T07:07:10.152Z,95458.00
2023-05-18T07:08:10.245Z,95458.00
2023-05-18T07:09:10.287Z,95458.00
2023-05-18T07:10:10.358Z,95456.00
2023-05-18T07:11:10.378Z,95457.00
2023-05-18T07:12:10.451Z,95455.00
2023-05-18T07:13:10.475Z,95455.00
2023-05-18T07:14:10.540Z,95455.00
2023-05-18T07:15:10.642Z,95453.00
2023-05-18T07:16:10.627Z,95453.00
2023-05-18T07:17:10.671Z,95452.00
2023-05-18T07:18:10.759Z,95452.00
2023-05-18T07:19:10.824Z,95451.00
2023-05-18T07:20:10.816Z,95450.00
2023-05-18T07:21:10.847Z,95449.00
2023-05-18T07:22:10.901Z,95448.00
2023-05-18T07:23:10.933Z,95448.00
2023-05-18T07:24:10.982Z,95446.00
2023-05-18T07:25:11.041Z,95446.00
2023-05-18T07:26:11.121Z,95445.00
2023-05-18T07:27:11.089Z,95443.00
2023-05-18T07:28:11.157Z,95445.00
2023-05-18T07:29:11.160Z,95442.00
2023-05-18T07:30:11.216Z,95445.00
2023-05-18T07:31:11.294Z,95444.00
2023-05-18T07:32:11.326Z,95442.00
2023-05-18T07:33:11.412Z,95439.00
2023-05-18T07:34:11.425Z,95444.00
2023-05-18T07:35:11.466Z,95443.00
2023-05-18T07:36:11.530Z,95441.00
2023-05-18T07:37:11.522Z,95445.00
2023-05-18T07:38:11.560Z,95443.00
2023-05-18T07:39:11.615Z,95445.00
2023-05-18T07:40:11.673Z,95444.00
2023-05-18T07:41:11.668Z,95442.00
2023-05-18T07:42:11.725Z,95443.00
2023-05-18T07:43:11.770Z,95441.00
2023-05-18T07:44:11.778Z,95443.00
2023-05-18T07:45:11.843Z,95440.00
2023-05-18T07:46:11.888Z,95441.00
2023-05-18T07:47:11.928Z,95440.00
2023-05-18T07:48:12.005Z,95439.00
2023-05-18T07:49:11.977Z,95442.00
2023-05-18T07:50:12.004Z,95439.00
2023-05-18T07:51:12.073Z,95441.00
2023-05-18T07:52:12.127Z,95440.00
2023-05-18T07:53:12.141Z,95443.00
2023-05-18T07:54:12.176Z,95442.00
2023-05-18T07:55:12.190Z,95444.00
2023-05-18T07:56:12.242Z,95442.00
2023-05-18T07:57:12.279Z,95443.00
2023-05-18T07:58:12.279Z,95442.00
2023-05-18T07:59:12.342Z,95441.00
2023-05-18T08:00:12.367Z,95439.00
2023-05-18T08:01:12.431Z,95442.00
2023-05-18T08:02:12.519Z,95437.00
2023-05-18T08:03:12.591Z,95440.00
2023-05-18T08:04:12.615Z,95440.00
2023-05-18T08:05:12.567Z,95439.00
2023-05-18T08:06:12.577Z,95438.00
2023-05-18T08:07:12.583Z,95439.00
2023-05-18T08:08:12.620Z,95439.00
2023-05-18T08:09:12.641Z,95441.00
2023-05-18T08:10:12.697Z,95439.00
2023-05-18T08:11:12.662Z,95438.00
2023-05-18T08:12:12.714Z,95439.00
2023-05-18T08:13:12.688Z,95439.00
2023-05-18T08:14:12.708Z,95439.00
2023-05-18T08:15:12.698Z,95439.00
2023-05-18T08:16:12.865Z,95439.00
2023-05-18T08:17:12.923Z,95439.00
2023-05-18T08:18:12.851Z,95440.00
2023-05-18T08:19:12.805Z,95439.00
2023-05-18T08:20:12.793Z,95439.00
2023-05-18T08:21:12.816Z,95438.00
2023-05-18T08:22:12.775Z,95436.00
2023-05-18T08:23:12.826Z,95437.00
2023-05-18T08:24:12.820Z,95440.00
2023-05-18T08:25:12.838Z,95437.00
2023-05-18T08:26:13.990Z,95438.00
2023-05-18T08:27:12.852Z,95440.00
2023-05-18T08:28:12.872Z,95440.00
2023-05-18T08:29:12.865Z,95440.00
2023-05-18T08:30:12.927Z,95442.00
2023-05-18T08:31:12.970Z,95441.00
2023-05-18T08:32:13.018Z,95441.00
2023-05-18T08:33:13.038Z,95443.00
2023-05-18T08:34:13.012Z,95446.00
2023-05-18T08:35:13.079Z,95442.00
2023-05-18T08:36:13.091Z,95442.00
2023-05-18T08:37:13.050Z,95445.00
2023-05-18T08:38:13.068Z,95444.00
2023-05-18T08:39:13.125Z,95446.00
2023-05-18T08:40:13.159Z,95441.00
2023-05-18T08:41:13.155Z,95442.00
2023-05-18T08:42:13.179Z,95443.00
2023-05-18T08:43:13.174Z,95442.00
2023-05-18T08:44:13.176Z,95441.00
2023-05-18T08:45:13.268Z,95440.00
2023-05-18T08:46:13.195Z,95441.00
2023-05-18T08:47:13.238Z,95441.00
2023-05-18T08:48:13.410Z,95440.00
2023-05-18T08:49:13.345Z,95441.00
2023-05-18T08:50:13.316Z,95439.00
2023-05-18T08:51:13.294Z,95439.00
2023-05-18T08:52:13.320Z,95438.00
2023-05-18T08:53:13.335Z,95439.00
2023-05-18T08:54:13.391Z,95438.00
2023-05-18T08:55:13.416Z,95438.00
2023-05-18T08:56:13.422Z,95438.00
2023-05-18T08:57:13.404Z,95437.00
2023-05-18T08:58:13.436Z,95434.00
2023-05-18T08:59:13.401Z,95435.00
2023-05-18T09:00:13.442Z,95431.00
2023-05-18T09:01:13.478Z,95431.00
2023-05-18T09:02:13.518Z,95432.00
2023-05-18T09:03:13.530Z,95431.00
2023-05-18T09:04:13.529Z,95428.00
2023-05-18T09:05:13.599Z,95430.00
2023-05-18T09:06:13.546Z,95427.00
2023-05-18T09:07:13.571Z,95429.00
2023-05-18T09:08:13.600Z,95428.00
2023-05-18T09:09:13.610Z,95429.00
2023-05-18T09:10:13.652Z,95427.00
2023-05-18T09:11:13.620Z,95429.00
2023-05-18T09:12:13.633Z,95425.00
2023-05-18T09:13:13.656Z,95428.00
2023-05-18T09:14:13.643Z,95426.00
2023-05-18T09:15:13.658Z,95431.00
2023-05-18T09:16:13.745Z,95431.00
2023-05-18T09:17:13.737Z,95429.00
2023-05-18T09:18:13.778Z,95429.00
2023-05-18T09:19:13.765Z,95429.00
2023-05-18T09:20:13.742Z,95429.00
2023-05-18T09:21:13.718Z,95432.00
2023-05-18T09:22:13.759Z,95432.00
2023-05-18T09:23:13.771Z,95432.00
2023-05-18T09:24:16.306Z,95433.00
2023-05-18T09:25:13.893Z,95432.00
2023-05-18T09:26:13.893Z,95433.00
2023-05-18T09:27:13.928Z,95435.00
2023-05-18T09:28:13.907Z,95431.00
2023-05-18T09:29:13.916Z,95431.00
2023-05-18T09:30:13.954Z,95432.00
2023-05-18T09:31:13.971Z,95429.00
2023-05-18T09:32:13.972Z,95428.00
2023-05-18T09:33:14.103Z,95427.00
2023-05-18T09:34:13.975Z,95426.00
2023-05-18T09:35:14.008Z,95427.00
2023-05-18T09:36:13.994Z,95427.00
2023-05-18T09:37:14.011Z,95425.00
2023-05-18T09:38:14.053Z,95424.00
2023-05-18T09:39:14.061Z,95424.00
2023-05-18T09:40:14.023Z,95423.00
2023-05-18T09:41:14.029Z,95422.00
2023-05-18T09:42:14.048Z,95421.00
2023-05-18T09:43:14.040Z,95421.00
2023-05-18T09:44:14.078Z,95420.00
2023-05-18T09:45:14.048Z,95419.00
2023-05-18T09:46:14.151Z,95421.00
2023-05-18T09:47:14.077Z,95419.00
2023-05-18T09:48:14.184Z,95420.00
2023-05-18T09:49:14.121Z,95418.00
2023-05-18T09:50:14.153Z,95417.00
2023-05-18T09:51:14.151Z,95414.00
2023-05-18T09:52:14.125Z,95415.00
2023-05-18T09:53:14.146Z,95410.00
2023-05-18T09:54:14.164Z,95412.00
2023-05-18T09:55:14.154Z,95413.00
2023-05-18T09:56:14.146Z,95412.00
2023-05-18T09:57:14.136Z,95412.00
2023-05-18T09:58:14.140Z,95412.00
2023-05-18T09:59:14.168Z,95414.00
2023-05-18T10:00:14.161Z,95412.00
2023-05-18T10:01:14.257Z,95411.00
2023-05-18T10:02:14.149Z,95410.00
2023-05-18T10:03:14.174Z,95412.00
2023-05-18T10:04:14.205Z,95411.00
2023-05-18T10:05:14.199Z,95411.00
2023-05-18T10:06:14.195Z,95411.00
2023-05-18T10:07:14.189Z,95409.00
2023-05-18T10:08:14.207Z,95409.00
2023-05-18T10:09:14.196Z,95409.00
2023-05-18T10:10:14.182Z,95408.00
2023-05-18T10:11:14.178Z,95408.00
2023-05-18T10:12:14.178Z,95410.00
2023-05-18T10:13:14.207Z,95412.00
2023-05-18T10:14:14.180Z,95410.00
2023-05-18T10:15:14.206Z,95413.00
2023-05-18T10:16:14.246Z,95408.00
2023-05-18T10:17:15.488Z,95409.00
2023-05-18T10:18:14.269Z,95409.00
2023-05-18T10:19:14.217Z,95408.00
2023-05-18T10:20:14.180Z,95409.00
2023-05-18T10:21:14.165Z,95407.00
2023-05-18T10:22:14.188Z,95407.00
2023-05-18T10:23:14.183Z,95403.00
2023-05-18T10:24:14.170Z,95404.00
2023-05-18T10:25:14.179Z,95404.00
2023-05-18T10:26:14.161Z,95403.00
2023-05-18T10:27:14.197Z,95401.00
2023-05-18T10:28:14.178Z,95398.00
2023-05-18T10:29:14.153Z,95397.00
2023-05-18T10:30:14.197Z,95401.00
2023-05-18T10:31:14.235Z,95398.00
2023-05-18T10:32:14.181Z,95399.00
2023-05-18T10:33:27.771Z,95402.00
2023-05-18T10:34:15.128Z,95403.00
2023-05-18T10:35:14.152Z,95402.00
2023-05-18T10:36:14.159Z,95398.00
2023-05-18T10:37:14.147Z,95398.00
2023-05-18T10:38:14.137Z,95400.00
2023-05-18T10:39:14.119Z,95399.00
2023-05-18T10:40:14.104Z,95401.00
2023-05-18T10:41:14.106Z,95400.00
2023-05-18T10:42:14.100Z,95400.00
2023-05-18T10:43:15.685Z,95397.00
2023-05-18T10:44:14.078Z,95400.00
2023-05-18T10:45:14.091Z,95402.00
2023-05-18T10:46:14.118Z,95401.00
2023-05-18T10:47:14.212Z,95398.00
2023-05-18T10:48:14.108Z,95402.00
2023-05-18T10:49:14.044Z,95399.00
2023-05-18T10:50:14.037Z,95399.00
2023-05-18T10:51:14.040Z,95399.00
2023-05-18T10:52:14.022Z,95399.00
2023-05-18T10:53:14.020Z,95398.00
2023-05-18T10:54:14.032Z,95400.00
2023-05-18T10:55:13.981Z,95399.00
2023-05-18T10:56:13.978Z,95399.00
2023-05-18T10:57:13.995Z,95400.00
2023-05-18T10:58:14.028Z,95398.00
2023-05-18T10:59:13.976Z,95402.00
2023-05-18T11:00:13.983Z,95399.00
2023-05-18T11:01:14.011Z,95403.00
2023-05-18T11:02:14.021Z,95403.00
2023-05-18T11:03:13.977Z,95404.00
2023-05-18T11:04:13.929Z,95404.00
2023-05-18T11:05:13.986Z,95403.00
2023-05-18T11:06:13.926Z,95401.00
2023-05-18T11:07:13.903Z,95403.00
2023-05-18T11:08:13.922Z,95401.00
2023-05-18T11:09:13.956Z,95403.00
2023-05-18T11:10:13.927Z,95402.00
2023-05-18T11:11:15.006Z,95397.00
2023-05-18T11:12:13.888Z,95397.00
2023-05-18T11:13:13.884Z,95396.00
2023-05-18T11:14:13.852Z,95396.00
2023-05-18T11:15:13.887Z,95398.00
2023-05-18T11:16:13.904Z,95395.00
2023-05-18T11:17:13.863Z,95393.00
2023-05-18T11:18:13.934Z,95395.00
2023-05-18T11:19:13.889Z,95395.00
2023-05-18T11:20:13.843Z,95397.00
2023-05-18T11:21:13.821Z,95397.00
2023-05-18T11:22:13.808Z,95396.00
2023-05-18T11:23:13.819Z,95398.00
2023-05-18T11:24:13.821Z,95394.00
2023-05-18T11:25:13.813Z,95394.00
2023-05-18T11:26:13.778Z,95397.00
2023-05-18T11:27:13.807Z,95394.00
2023-05-18T11:28:13.820Z,95396.00
2023-05-18T11:29:13.783Z,95395.00
2023-05-18T11:30:31.069Z,95397.00
2023-05-18T11:31:14.766Z,95397.00
2023-05-18T11:32:19.038Z,95400.00
2023-05-18T11:33:14.873Z,95401.00
2023-05-18T11:34:13.744Z,95396.00
2023-05-18T11:35:13.726Z,95400.00
2023-05-18T11:36:13.746Z,95401.00
2023-05-18T11:37:13.726Z,95402.00
2023-05-18T11:38:13.705Z,95400.00
2023-05-18T11:39:13.682Z,95401.00
2023-05-18T11:40:13.862Z,95398.00
2023-05-18T11:41:13.697Z,95396.00
2023-05-18T11:42:13.680Z,95397.00
2023-05-18T11:43:13.654Z,95394.00
2023-05-18T11:44:13.701Z,95394.00
2023-05-18T11:45:13.666Z,95392.00